Time;durP1;ratioP1;P1;durP2;ratioP2;P2;SDS_P1;SDS_P2;PMS_P1;PMS_P2;Temp;Humidity;BMP_temperature;BMP_pressure;BME280_temperature;BME280_humidity;BME280_pressure;Samples;Min_cycle;Max_cycle;Signal;HPM_P1;HPM_P2
2021/11/04 00:00:12;;;;;;;0.20;0.20;;;6.20;99.90;;;;;;4995530;28;20053;-91
2021/11/04 00:02:39;;;;;;;0.20;0.20;;;6.40;99.90;;;;;;4995494;28;20028;-91
2021/11/04 00:05:05;;;;;;;0.20;0.20;;;6.40;99.90;;;;;;4995710;28;20550;-91
2021/11/04 00:07:31;;;;;;;0.20;0.20;;;6.50;99.90;;;;;;4995370;28;20033;-91
2021/11/04 00:09:57;;;;;;;0.10;0.10;;;6.50;99.90;;;;;;4995567;28;20024;-90
2021/11/04 00:12:23;;;;;;;0.20;0.20;;;6.40;99.90;;;;;;4995957;28;20434;-90
2021/11/04 00:14:48;;;;;;;0.20;0.20;;;6.30;99.90;;;;;;4994765;28;20053;-91
2021/11/04 00:17:14;;;;;;;0.20;0.20;;;6.30;99.90;;;;;;4994938;28;20033;-90
2021/11/04 00:19:40;;;;;;;0.20;0.20;;;6.30;99.90;;;;;;4994834;28;20022;-91
2021/11/04 00:22:06;;;;;;;0.15;0.15;;;6.40;99.90;;;;;;4994838;28;20104;-91
2021/11/04 00:24:32;;;;;;;0.10;0.10;;;6.50;99.90;;;;;;5011804;28;20081;-90
2021/11/04 00:26:58;;;;;;;0.20;0.20;;;6.50;99.90;;;;;;5012191;28;20565;-90
2021/11/04 00:29:23;;;;;;;0.17;0.17;;;6.40;99.90;;;;;;4994647;28;20026;-91
2021/11/04 00:31:49;;;;;;;0.20;0.20;;;6.30;99.90;;;;;;4994707;28;20033;-91
2021/11/04 00:34:15;;;;;;;0.13;0.13;;;6.30;99.90;;;;;;4994949;28;20121;-91
2021/11/04 00:36:43;;;;;;;0.20;0.20;;;6.30;99.90;;;;;;4994774;28;20364;-90
2021/11/04 00:39:10;;;;;;;0.45;0.45;;;6.30;99.90;;;;;;4994625;28;20030;-91
2021/11/04 00:41:35;;;;;;;0.20;0.20;;;6.30;99.90;;;;;;4994468;28;20026;-91
2021/11/04 00:44:02;;;;;;;0.20;0.20;;;6.20;99.90;;;;;;4995161;28;20029;-90
2021/11/04 00:46:33;;;;;;;0.20;0.20;;;6.20;99.90;;;;;;4994149;28;20125;-90
2021/11/04 00:48:59;;;;;;;0.10;0.10;;;6.20;99.90;;;;;;4994563;28;20033;-91
2021/11/04 00:51:24;;;;;;;0.20;0.20;;;6.20;99.90;;;;;;4994420;28;20026;-91
2021/11/04 00:53:52;;;;;;;0.17;0.17;;;6.20;99.90;;;;;;4994515;28;20054;-91
2021/11/04 00:56:18;;;;;;;0.10;0.10;;;6.20;99.90;;;;;;4994785;28;20135;-90
2021/11/04 00:58:44;;;;;;;0.20;0.20;;;6.20;99.90;;;;;;4995179;28;20086;-90
2021/11/04 01:01:10;;;;;;;0.20;0.20;;;6.10;99.90;;;;;;4995451;28;20038;-90
2021/11/04 01:03:36;;;;;;;0.20;0.20;;;6.10;99.90;;;;;;5049280;23;20053;-91
2021/11/04 01:06:02;;;;;;;0.20;0.20;;;6.10;99.90;;;;;;5014749;28;20450;-90
2021/11/04 01:08:27;;;;;;;0.20;0.20;;;6.00;99.90;;;;;;5000275;28;20022;-90
2021/11/04 01:10:53;;;;;;;0.22;0.22;;;5.90;99.90;;;;;;4999688;28;20491;-90
2021/11/04 01:13:19;;;;;;;0.30;0.30;;;5.80;99.90;;;;;;5017487;28;20072;-90
2021/11/04 01:15:44;;;;;;;0.20;0.20;;;5.70;99.90;;;;;;5002381;28;20080;-90
2021/11/04 01:18:10;;;;;;;0.20;0.20;;;5.60;99.90;;;;;;5002749;28;20065;-90
2021/11/04 01:20:36;;;;;;;0.20;0.20;;;5.60;99.90;;;;;;5001393;28;20026;-90
2021/11/04 01:23:02;;;;;;;0.20;0.20;;;5.60;99.90;;;;;;5001746;28;20085;-90
2021/11/04 01:25:28;;;;;;;0.40;0.40;;;5.70;99.90;;;;;;5000805;28;20051;-90
2021/11/04 01:27:54;;;;;;;0.20;0.20;;;5.60;99.90;;;;;;5000938;28;20483;-90
2021/11/04 01:30:20;;;;;;;0.20;0.20;;;5.60;99.90;;;;;;5001213;28;20030;-90
2021/11/04 01:32:45;;;;;;;0.20;0.20;;;5.80;99.90;;;;;;5000826;28;20026;-91
2021/11/04 01:35:11;;;;;;;0.20;0.20;;;6.00;99.90;;;;;;4999975;28;20125;-91
2021/11/04 01:37:37;;;;;;;0.63;0.63;;;6.00;99.90;;;;;;5002045;28;20026;-91
2021/11/04 01:40:05;;;;;;;0.20;0.20;;;5.90;99.90;;;;;;5000566;28;20076;-90
2021/11/04 01:42:31;;;;;;;0.20;0.20;;;5.90;99.90;;;;;;5000285;28;20033;-91
2021/11/04 01:44:57;;;;;;;0.20;0.20;;;5.90;99.90;;;;;;5000497;28;20076;-90
2021/11/04 01:47:23;;;;;;;0.25;0.25;;;5.80;99.90;;;;;;5000647;28;20029;-90
2021/11/04 01:49:49;;;;;;;0.30;0.30;;;5.70;99.90;;;;;;5000519;28;20029;-90
2021/11/04 01:52:14;;;;;;;0.20;0.20;;;5.50;99.90;;;;;;5000984;28;20092;-91
2021/11/04 01:54:40;;;;;;;0.20;0.20;;;5.40;99.90;;;;;;5001685;28;20022;-91
2021/11/04 01:57:06;;;;;;;0.20;0.20;;;5.50;99.90;;;;;;5000442;28;20030;-90
2021/11/04 01:59:32;;;;;;;0.20;0.20;;;5.50;99.90;;;;;;5000900;28;20112;-90
2021/11/04 02:02:17;;;;;;;0.30;0.30;;;5.60;99.90;;;;;;5000233;28;20021;-91
2021/11/04 02:05:05;;;;;;;0.30;0.30;;;5.50;99.90;;;;;;4999793;28;20121;-90
2021/11/04 02:08:06;;;;;;;0.30;0.30;;;5.50;99.90;;;;;;5016907;28;20106;-91
2021/11/04 02:10:42;;;;;;;0.17;0.17;;;5.50;99.90;;;;;;4999982;28;20033;-91
2021/11/04 02:13:16;;;;;;;0.20;0.20;;;5.50;99.90;;;;;;5001042;28;20076;-90
2021/11/04 02:15:45;;;;;;;0.20;0.20;;;5.60;99.90;;;;;;5007240;28;20030;-91
2021/11/04 02:18:13;;;;;;;0.20;0.20;;;5.80;99.90;;;;;;5022190;28;20025;-91
2021/11/04 02:21:06;;;;;;;0.20;0.20;;;5.60;99.90;;;;;;5021669;28;20041;-90
2021/11/04 02:23:53;;;;;;;0.20;0.20;;;5.60;99.90;;;;;;5014932;28;20045;-90
2021/11/04 02:26:28;;;;;;;0.20;0.20;;;5.50;99.90;;;;;;5000529;28;20038;-91
2021/11/04 02:28:54;;;;;;;0.43;0.43;;;5.30;99.90;;;;;;4999739;28;20054;-91
2021/11/04 02:31:22;;;;;;;0.20;0.20;;;5.30;99.90;;;;;;4999587;28;20022;-91
2021/11/04 02:33:48;;;;;;;0.20;0.20;;;5.40;99.90;;;;;;4998256;28;20395;-90
2021/11/04 02:36:16;;;;;;;1.27;0.43;;;5.20;99.90;;;;;;4998209;28;20037;-90
2021/11/04 02:38:42;;;;;;;1.80;0.30;;;5.10;99.90;;;;;;5015820;28;20368;-90
2021/11/04 02:41:09;;;;;;;0.30;0.30;;;5.10;99.90;;;;;;4998940;28;20036;-91
2021/11/04 02:43:36;;;;;;;0.30;0.30;;;5.10;99.90;;;;;;4998729;28;20080;-90
2021/11/04 02:46:03;;;;;;;0.30;0.30;;;5.10;99.90;;;;;;4999654;28;20072;-90
2021/11/04 02:48:30;;;;;;;0.22;0.22;;;5.00;99.90;;;;;;4999533;28;20028;-90
2021/11/04 02:50:57;;;;;;;0.20;0.20;;;4.90;99.90;;;;;;5000641;28;20076;-90
2021/11/04 02:53:26;;;;;;;0.22;0.22;;;5.00;99.90;;;;;;5001052;28;20403;-90
2021/11/04 02:55:53;;;;;;;0.30;0.30;;;5.10;99.90;;;;;;4998094;28;20053;-90
2021/11/04 02:58:19;;;;;;;0.20;0.20;;;5.00;99.90;;;;;;4998114;28;20034;-90
2021/11/04 03:00:48;;;;;;;0.20;0.20;;;4.90;99.90;;;;;;4999047;28;20382;-90
2021/11/04 03:03:15;;;;;;;0.20;0.20;;;4.90;99.90;;;;;;4998704;28;20159;-91
2021/11/04 03:05:40;;;;;;;0.30;0.30;;;4.80;99.90;;;;;;4998129;28;20479;-90
2021/11/04 03:08:07;;;;;;;0.20;0.20;;;4.70;99.90;;;;;;4998172;28;20084;-90
2021/11/04 03:10:33;;;;;;;0.20;0.20;;;4.60;99.90;;;;;;4998954;28;20029;-90
2021/11/04 03:12:58;;;;;;;0.20;0.20;;;4.70;99.90;;;;;;4999173;28;20488;-91
2021/11/04 03:15:26;;;;;;;0.22;0.22;;;4.80;99.90;;;;;;4998395;28;20018;-90
2021/11/04 03:17:53;;;;;;;0.30;0.30;;;4.60;99.90;;;;;;4998787;28;20076;-91
2021/11/04 03:20:21;;;;;;;0.30;0.30;;;4.50;99.90;;;;;;4998668;28;20113;-91
2021/11/04 03:22:48;;;;;;;0.30;0.30;;;4.40;99.90;;;;;;5014986;28;20551;-91
2021/11/04 03:25:17;;;;;;;0.20;0.20;;;4.40;99.90;;;;;;5007293;28;20022;-91
2021/11/04 03:27:46;;;;;;;0.20;0.20;;;4.50;99.90;;;;;;4998690;28;20057;-91
2021/11/04 03:30:16;;;;;;;0.20;0.20;;;4.50;99.90;;;;;;4998252;28;20029;-90
2021/11/04 03:32:42;;;;;;;0.28;0.28;;;4.50;99.90;;;;;;4997711;28;20029;-90
2021/11/04 03:35:10;;;;;;;0.30;0.30;;;4.40;99.90;;;;;;4998429;28;20061;-90
2021/11/04 03:37:43;;;;;;;0.40;0.40;;;4.00;99.90;;;;;;5015430;28;20021;-90
2021/11/04 03:40:10;;;;;;;0.45;0.45;;;3.80;99.90;;;;;;4998726;28;20029;-90
2021/11/04 03:42:36;;;;;;;0.30;0.30;;;3.70;99.90;;;;;;4998685;28;20092;-90
2021/11/04 03:45:03;;;;;;;0.40;0.40;;;3.80;99.90;;;;;;4997728;28;20025;-90
2021/11/04 03:47:30;;;;;;;0.30;0.30;;;3.70;99.90;;;;;;4998888;28;20028;-90
2021/11/04 03:49:57;;;;;;;0.28;0.28;;;3.50;99.90;;;;;;4997685;28;20018;-90
2021/11/04 03:52:23;;;;;;;0.30;0.30;;;3.60;99.90;;;;;;4997830;28;20026;-91
2021/11/04 03:54:50;;;;;;;0.30;0.30;;;3.80;99.90;;;;;;5002396;28;20049;-92
2021/11/04 03:57:17;;;;;;;0.30;0.30;;;3.70;99.90;;;;;;4998596;28;20049;-91
2021/11/04 03:59:43;;;;;;;0.30;0.30;;;3.60;99.90;;;;;;4999785;28;20061;-90
2021/11/04 04:02:10;;;;;;;0.20;0.20;;;3.70;99.90;;;;;;4999750;28;20030;-90
2021/11/04 04:04:36;;;;;;;0.30;0.30;;;3.60;99.90;;;;;;4998601;28;20148;-90
2021/11/04 04:07:02;;;;;;;0.30;0.30;;;3.60;99.90;;;;;;4997165;28;20030;-90
2021/11/04 04:09:28;;;;;;;0.30;0.30;;;3.50;99.90;;;;;;4997987;28;20033;-90
2021/11/04 04:11:54;;;;;;;0.30;0.30;;;3.70;99.90;;;;;;4998349;28;20029;-90
2021/11/04 04:14:21;;;;;;;0.30;0.30;;;3.70;99.90;;;;;;5005240;28;20026;-89
2021/11/04 04:16:47;;;;;;;0.25;0.25;;;3.80;99.90;;;;;;5009719;28;20030;-90
2021/11/04 04:19:13;;;;;;;0.20;0.20;;;3.70;99.90;;;;;;5024360;28;20037;-89
2021/11/04 04:21:38;;;;;;;0.30;0.30;;;3.60;99.90;;;;;;4998680;28;20106;-90
2021/11/04 04:24:07;;;;;;;0.30;0.30;;;3.50;99.90;;;;;;4996398;28;20091;-90
2021/11/04 04:26:33;;;;;;;0.30;0.30;;;3.40;99.90;;;;;;4996081;28;20030;-90
2021/11/04 04:28:59;;;;;;;0.30;0.30;;;3.50;99.90;;;;;;4996358;28;20510;-90
2021/11/04 04:31:25;;;;;;;0.30;0.30;;;3.20;99.90;;;;;;4996164;28;20476;-90
2021/11/04 04:33:51;;;;;;;0.30;0.30;;;3.20;99.90;;;;;;4996420;28;20030;-90
2021/11/04 04:36:16;;;;;;;0.30;0.30;;;3.20;99.90;;;;;;4996290;28;20443;-90
2021/11/04 04:38:42;;;;;;;0.30;0.30;;;3.00;99.90;;;;;;4996687;28;20030;-90
2021/11/04 04:41:08;;;;;;;2.65;1.05;;;3.10;99.90;;;;;;4998214;28;20034;-90
2021/11/04 04:43:34;;;;;;;0.20;0.20;;;3.10;99.90;;;;;;5001022;28;20121;-90
2021/11/04 04:45:59;;;;;;;0.30;0.30;;;3.20;99.90;;;;;;4999568;28;20026;-90
2021/11/04 04:48:25;;;;;;;0.30;0.30;;;3.40;99.90;;;;;;4999851;28;20054;-90
2021/11/04 04:50:51;;;;;;;0.30;0.30;;;3.40;99.90;;;;;;4999616;28;20022;-90
2021/11/04 04:53:17;;;;;;;0.20;0.20;;;3.40;99.90;;;;;;4999444;28;20380;-91
2021/11/04 04:55:42;;;;;;;0.20;0.20;;;3.30;99.90;;;;;;4999543;28;20030;-90
2021/11/04 04:58:08;;;;;;;0.63;0.50;;;3.40;99.90;;;;;;4999476;28;20495;-91
2021/11/04 05:00:35;;;;;;;0.20;0.20;;;3.30;99.90;;;;;;4999700;28;20014;-90
2021/11/04 05:03:01;;;;;;;0.30;0.30;;;3.30;99.90;;;;;;4999730;28;20516;-91
2021/11/04 05:05:27;;;;;;;0.30;0.30;;;3.30;99.90;;;;;;5000187;28;20030;-91
2021/11/04 05:07:52;;;;;;;0.28;0.28;;;3.30;99.90;;;;;;5000204;28;20026;-90
2021/11/04 05:10:18;;;;;;;0.30;0.30;;;3.20;99.90;;;;;;5004731;28;20048;-90
2021/11/04 05:12:45;;;;;;;0.30;0.30;;;3.20;99.90;;;;;;5020772;28;20049;-90
2021/11/04 05:15:11;;;;;;;0.45;0.45;;;3.10;99.90;;;;;;5011413;28;20029;-91
2021/11/04 05:17:37;;;;;;;0.30;0.30;;;3.20;99.90;;;;;;4999484;28;20446;-90
2021/11/04 05:20:05;;;;;;;0.30;0.30;;;3.20;99.90;;;;;;4999192;28;20040;-91
2021/11/04 05:22:32;;;;;;;0.30;0.30;;;3.10;99.90;;;;;;4999169;28;20030;-90
2021/11/04 05:24:57;;;;;;;2.83;0.43;;;3.10;99.90;;;;;;4998593;28;20045;-90
2021/11/04 05:27:23;;;;;;;0.30;0.30;;;3.10;99.90;;;;;;4999985;28;20483;-90
2021/11/04 05:29:54;;;;;;;0.30;0.30;;;3.10;99.90;;;;;;5015668;28;20506;-90
2021/11/04 05:32:23;;;;;;;0.30;0.30;;;3.00;99.90;;;;;;5017185;28;20026;-91
2021/11/04 05:34:49;;;;;;;0.30;0.30;;;3.20;99.90;;;;;;4998504;28;20022;-90
2021/11/04 05:37:15;;;;;;;0.30;0.30;;;3.30;99.90;;;;;;4999017;28;20044;-91
2021/11/04 05:39:42;;;;;;;0.30;0.30;;;3.40;99.90;;;;;;5015290;28;20026;-91
2021/11/04 05:42:09;;;;;;;0.20;0.20;;;3.40;99.90;;;;;;5001227;28;20566;-90
2021/11/04 05:44:37;;;;;;;0.30;0.30;;;3.40;99.90;;;;;;5002014;28;20049;-90
2021/11/04 05:47:05;;;;;;;0.20;0.20;;;3.40;99.90;;;;;;4999285;28;20112;-91
2021/11/04 05:49:30;;;;;;;0.20;0.20;;;3.60;99.90;;;;;;4998502;28;20033;-90
2021/11/04 05:51:56;;;;;;;0.30;0.30;;;3.60;99.90;;;;;;4998480;28;20030;-91
2021/11/04 05:54:22;;;;;;;0.30;0.30;;;3.70;99.90;;;;;;4999280;28;20026;-91
2021/11/04 05:56:48;;;;;;;0.20;0.20;;;3.60;99.90;;;;;;4998733;28;20502;-91
2021/11/04 05:59:13;;;;;;;0.50;0.50;;;3.70;99.90;;;;;;4998268;28;20026;-91
2021/11/04 06:01:39;;;;;;;0.35;0.35;;;3.80;99.90;;;;;;4998390;28;20029;-91
2021/11/04 06:04:05;;;;;;;0.50;0.50;;;3.80;99.90;;;;;;4997957;28;20040;-90
2021/11/04 06:06:30;;;;;;;0.22;0.22;;;3.80;99.90;;;;;;4998422;28;20029;-91
2021/11/04 06:08:56;;;;;;;0.30;0.30;;;3.80;99.90;;;;;;4999146;28;20022;-90
2021/11/04 06:11:22;;;;;;;0.40;0.40;;;3.80;99.90;;;;;;4998999;28;20394;-91
2021/11/04 06:13:47;;;;;;;0.20;0.20;;;3.90;99.90;;;;;;4998936;28;20026;-90
2021/11/04 06:16:14;;;;;;;0.20;0.20;;;4.00;99.90;;;;;;4999381;28;20040;-90
2021/11/04 06:18:40;;;;;;;0.20;0.20;;;3.90;99.90;;;;;;4999173;28;20460;-90
2021/11/04 06:21:07;;;;;;;0.20;0.20;;;3.90;99.90;;;;;;4998386;28;20036;-91
2021/11/04 06:23:32;;;;;;;0.20;0.20;;;3.90;99.90;;;;;;4998028;28;20527;-91
2021/11/04 06:25:58;;;;;;;0.30;0.30;;;3.90;99.90;;;;;;4999298;28;20030;-91
2021/11/04 06:28:24;;;;;;;0.20;0.20;;;3.90;99.90;;;;;;5002085;28;20022;-91
2021/11/04 06:30:49;;;;;;;0.30;0.30;;;3.90;99.90;;;;;;5006004;28;20029;-91
2021/11/04 06:33:15;;;;;;;0.30;0.30;;;3.90;99.90;;;;;;4998689;28;20022;-92
2021/11/04 06:35:41;;;;;;;0.30;0.30;;;3.90;99.90;;;;;;4998372;28;20029;-91
2021/11/04 06:38:07;;;;;;;0.50;0.50;;;3.90;99.90;;;;;;4996630;28;20022;-91
2021/11/04 06:40:32;;;;;;;0.20;0.20;;;3.90;99.90;;;;;;4996728;28;20487;-90
2021/11/04 06:42:58;;;;;;;0.30;0.30;;;3.90;99.90;;;;;;5013845;28;20531;-90
2021/11/04 06:45:24;;;;;;;0.40;0.40;;;4.10;99.90;;;;;;4999791;28;20026;-90
2021/11/04 06:48:01;;;;;;;0.68;0.68;;;4.00;99.90;;;;;;5000649;28;20399;-90
2021/11/04 06:50:32;;;;;;;0.52;0.50;;;4.10;99.90;;;;;;5014378;28;20025;-90
2021/11/04 06:53:09;;;;;;;0.20;0.20;;;4.00;99.90;;;;;;4996683;28;20018;-91
2021/11/04 06:55:42;;;;;;;0.30;0.30;;;4.00;99.90;;;;;;4993780;28;20479;-91
2021/11/04 06:58:15;;;;;;;0.20;0.20;;;4.10;99.90;;;;;;5001957;28;20033;-91
2021/11/04 07:00:46;;;;;;;0.20;0.20;;;4.30;99.90;;;;;;4996714;28;20533;-91
2021/11/04 07:03:27;;;;;;;1.00;0.55;;;4.30;99.90;;;;;;4995725;28;20470;-91
2021/11/04 07:06:00;;;;;;;0.73;0.73;;;4.20;99.90;;;;;;5073436;23;20048;-74
2021/11/04 07:08:27;;;;;;;0.30;0.30;;;4.30;99.90;;;;;;5011009;28;20026;-74
2021/11/04 07:11:02;;;;;;;0.30;0.30;;;4.40;99.90;;;;;;5015309;28;20028;-74
2021/11/04 07:13:30;;;;;;;0.30;0.30;;;4.30;99.90;;;;;;5018620;28;20026;-74
2021/11/04 07:15:58;;;;;;;0.52;0.40;;;4.30;99.90;;;;;;5010352;28;20030;-74
2021/11/04 07:18:25;;;;;;;0.30;0.30;;;4.30;99.90;;;;;;5009707;28;20036;-74
2021/11/04 07:20:59;;;;;;;1.20;1.15;;;4.40;99.90;;;;;;5006756;28;20029;-74
2021/11/04 07:23:39;;;;;;;0.20;0.20;;;4.40;99.90;;;;;;4992801;28;20038;-74
2021/11/04 07:26:07;;;;;;;0.30;0.30;;;4.50;99.90;;;;;;5009215;28;20026;-74
2021/11/04 07:28:38;;;;;;;0.30;0.30;;;4.50;99.90;;;;;;5012555;28;20033;-74
2021/11/04 07:31:14;;;;;;;6.30;1.15;;;4.40;99.90;;;;;;5012638;28;20280;-74
2021/11/04 07:33:44;;;;;;;0.40;0.40;;;4.40;99.90;;;;;;5024307;28;20033;-74
2021/11/04 07:36:14;;;;;;;0.40;0.40;;;4.40;99.90;;;;;;5021834;28;20022;-74
2021/11/04 07:38:42;;;;;;;0.50;0.50;;;4.40;99.90;;;;;;5012135;28;20033;-74
2021/11/04 07:41:07;;;;;;;0.30;0.30;;;4.40;99.90;;;;;;5027776;28;20112;-74
2021/11/04 07:43:33;;;;;;;0.63;0.57;;;4.40;99.90;;;;;;5022215;28;20482;-74
2021/11/04 07:45:59;;;;;;;0.40;0.30;;;4.40;99.90;;;;;;4994329;28;20499;-74
2021/11/04 07:48:27;;;;;;;0.25;0.25;;;4.40;99.90;;;;;;5016159;28;20030;-74
2021/11/04 07:50:53;;;;;;;0.50;0.50;;;4.50;99.90;;;;;;5030620;28;20057;-74
2021/11/04 07:53:19;;;;;;;0.22;0.22;;;4.60;99.90;;;;;;5031517;28;20100;-74
2021/11/04 07:55:46;;;;;;;0.22;0.22;;;4.60;99.90;;;;;;5022694;28;20311;-74
2021/11/04 07:58:11;;;;;;;0.22;0.22;;;4.60;99.90;;;;;;5008573;28;20034;-74
2021/11/04 08:00:37;;;;;;;0.30;0.30;;;4.80;99.90;;;;;;5008750;28;20987;-76
2021/11/04 08:03:05;;;;;;;0.30;0.30;;;4.70;99.90;;;;;;5010044;28;20477;-75
2021/11/04 08:05:31;;;;;;;0.20;0.20;;;4.80;99.90;;;;;;5007444;28;20042;-75
2021/11/04 08:07:56;;;;;;;0.20;0.20;;;4.80;99.90;;;;;;5009103;28;20493;-75
2021/11/04 08:10:22;;;;;;;0.22;0.22;;;5.00;99.90;;;;;;5010742;28;20096;-74
2021/11/04 08:12:48;;;;;;;0.38;0.38;;;5.00;99.90;;;;;;5008911;28;20433;-74
2021/11/04 08:15:15;;;;;;;0.20;0.20;;;5.00;99.90;;;;;;4995345;28;20095;-75
2021/11/04 08:17:41;;;;;;;0.40;0.40;;;5.00;99.90;;;;;;5012667;28;20057;-74
2021/11/04 08:20:08;;;;;;;0.20;0.20;;;5.00;99.90;;;;;;5013372;28;20516;-74
2021/11/04 08:22:35;;;;;;;0.40;0.40;;;5.00;99.90;;;;;;5014812;28;20022;-75
2021/11/04 08:25:03;;;;;;;0.30;0.30;;;5.10;99.90;;;;;;5014851;28;20038;-74
2021/11/04 08:27:29;;;;;;;0.20;0.20;;;5.10;99.90;;;;;;5013287;28;20079;-75
2021/11/04 08:29:55;;;;;;;0.20;0.20;;;5.10;99.90;;;;;;5013483;28;20389;-75
2021/11/04 08:32:21;;;;;;;0.15;0.15;;;5.20;99.90;;;;;;5012870;28;20041;-75
2021/11/04 08:34:46;;;;;;;0.28;0.28;;;5.20;99.90;;;;;;5013460;28;20018;-75
2021/11/04 08:37:13;;;;;;;2.22;0.50;;;5.40;99.90;;;;;;5015221;28;20409;-75
2021/11/04 08:39:39;;;;;;;0.30;0.30;;;5.40;99.90;;;;;;5017243;28;20030;-75
2021/11/04 08:42:06;;;;;;;0.25;0.25;;;5.40;99.90;;;;;;5012712;28;20076;-75
2021/11/04 08:44:33;;;;;;;0.25;0.25;;;5.40;99.90;;;;;;5013852;28;20218;-75
2021/11/04 08:47:00;;;;;;;0.28;0.28;;;5.30;99.90;;;;;;5008166;28;20041;-75
2021/11/04 08:49:27;;;;;;;0.30;0.30;;;5.20;99.90;;;;;;5012747;28;20036;-74
2021/11/04 08:51:54;;;;;;;0.22;0.22;;;5.30;99.90;;;;;;5012827;28;20129;-74
2021/11/04 08:54:24;;;;;;;0.30;0.30;;;5.20;99.90;;;;;;5014205;28;20025;-74
2021/11/04 08:56:51;;;;;;;0.20;0.20;;;5.20;99.90;;;;;;5011747;28;20088;-74
2021/11/04 08:59:18;;;;;;;0.35;0.35;;;5.10;99.90;;;;;;5012617;28;20076;-74
2021/11/04 09:01:44;;;;;;;1.38;0.55;;;5.00;99.90;;;;;;5012522;28;20026;-74
2021/11/04 09:04:13;;;;;;;0.55;0.52;;;4.90;99.90;;;;;;5012034;28;20497;-74
2021/11/04 09:06:40;;;;;;;0.20;0.20;;;4.90;99.90;;;;;;5012265;28;20034;-74
2021/11/04 09:09:08;;;;;;;0.20;0.20;;;5.00;99.90;;;;;;5015456;28;20026;-74
2021/11/04 09:11:33;;;;;;;0.20;0.20;;;5.10;99.90;;;;;;5012408;28;20385;-74
2021/11/04 09:13:59;;;;;;;0.22;0.22;;;5.20;99.90;;;;;;5013143;28;20030;-74
2021/11/04 09:16:26;;;;;;;0.50;0.50;;;5.20;99.90;;;;;;5011963;28;20030;-74
2021/11/04 09:18:52;;;;;;;0.20;0.20;;;5.40;99.90;;;;;;5011609;28;20032;-74
2021/11/04 09:21:19;;;;;;;0.20;0.20;;;5.40;99.90;;;;;;5013436;28;20022;-74
2021/11/04 09:23:44;;;;;;;0.32;0.32;;;5.40;99.90;;;;;;5011406;28;20022;-74
2021/11/04 09:26:10;;;;;;;0.30;0.30;;;5.50;99.90;;;;;;5012551;28;20112;-74
2021/11/04 09:28:36;;;;;;;0.20;0.20;;;5.60;99.90;;;;;;5012089;28;20026;-74
2021/11/04 09:31:02;;;;;;;0.28;0.28;;;5.90;99.90;;;;;;5012349;28;20385;-75
2021/11/04 09:33:28;;;;;;;0.30;0.30;;;6.00;99.90;;;;;;5013200;28;20030;-74
2021/11/04 09:35:54;;;;;;;0.30;0.30;;;6.20;99.90;;;;;;5013250;28;20119;-74
2021/11/04 09:38:20;;;;;;;0.30;0.30;;;6.20;99.90;;;;;;5012768;28;20050;-75
2021/11/04 09:40:46;;;;;;;0.25;0.25;;;6.20;99.90;;;;;;4996104;28;20068;-75
2021/11/04 09:43:13;;;;;;;0.40;0.40;;;6.30;99.90;;;;;;5011812;28;20041;-75
2021/11/04 09:45:39;;;;;;;0.20;0.20;;;6.60;99.90;;;;;;5013363;28;20030;-75
2021/11/04 09:48:05;;;;;;;0.28;0.28;;;6.90;99.90;;;;;;5011364;28;20383;-75
2021/11/04 09:50:32;;;;;;;0.40;0.40;;;7.40;99.90;;;;;;5013275;28;20037;-75
2021/11/04 09:52:57;;;;;;;0.70;0.70;;;7.70;99.90;;;;;;5012862;28;20057;-75
2021/11/04 09:55:28;;;;;;;0.20;0.20;;;7.70;99.90;;;;;;5011988;28;20022;-75
2021/11/04 09:57:57;;;;;;;0.30;0.30;;;7.90;99.90;;;;;;5011961;28;20037;-75
2021/11/04 10:00:40;;;;;;;0.20;0.20;;;8.30;99.90;;;;;;5011591;28;20032;-75
2021/11/04 10:03:12;;;;;;;0.20;0.20;;;8.50;99.90;;;;;;5012835;28;20030;-75
2021/11/04 10:05:52;;;;;;;0.20;0.20;;;9.00;99.90;;;;;;5011112;28;20032;-75
2021/11/04 10:08:33;;;;;;;0.30;0.30;;;8.90;99.90;;;;;;5012773;28;20026;-75
2021/11/04 10:11:19;;;;;;;0.20;0.20;;;9.10;99.90;;;;;;5012959;28;20097;-75
2021/11/04 10:13:46;;;;;;;0.10;0.10;;;9.30;99.90;;;;;;4994695;28;20149;-75
2021/11/04 10:16:13;;;;;;;0.90;0.60;;;9.10;99.90;;;;;;5010988;28;20062;-75
2021/11/04 10:18:48;;;;;;;0.20;0.20;;;8.60;99.90;;;;;;5012071;28;20018;-75
2021/11/04 10:21:21;;;;;;;0.75;0.40;;;8.20;99.90;;;;;;5012619;28;20500;-75
2021/11/04 10:23:48;;;;;;;0.22;0.22;;;8.10;99.90;;;;;;5010843;28;20026;-75
2021/11/04 10:26:17;;;;;;;0.20;0.20;;;8.70;99.90;;;;;;5010913;28;20080;-75
2021/11/04 10:28:45;;;;;;;0.10;0.10;;;9.20;99.90;;;;;;5011951;28;20033;-75
2021/11/04 10:31:14;;;;;;;0.20;0.20;;;9.30;99.90;;;;;;5010949;28;20030;-75
2021/11/04 10:33:42;;;;;;;0.20;0.20;;;8.90;99.90;;;;;;5011939;28;20030;-75
2021/11/04 10:36:09;;;;;;;0.20;0.20;;;8.40;99.90;;;;;;5012250;28;20029;-75
2021/11/04 10:38:37;;;;;;;0.30;0.30;;;8.00;99.90;;;;;;5010497;28;20026;-76
2021/11/04 10:41:09;;;;;;;0.25;0.25;;;8.00;99.90;;;;;;5012530;28;20470;-75
2021/11/04 10:43:37;;;;;;;0.30;0.30;;;8.00;99.90;;;;;;5011965;28;20025;-75
2021/11/04 10:46:12;;;;;;;0.20;0.20;;;7.80;99.90;;;;;;5010980;28;20026;-77
2021/11/04 10:48:40;;;;;;;0.30;0.30;;;8.00;99.90;;;;;;5011968;28;20021;-74
2021/11/04 10:51:10;;;;;;;0.40;0.40;;;8.70;99.90;;;;;;5012285;28;20108;-74
2021/11/04 10:53:36;;;;;;;0.13;0.13;;;8.60;99.90;;;;;;5011944;28;20501;-74
2021/11/04 10:56:08;;;;;;;0.20;0.20;;;8.50;99.90;;;;;;5011161;28;20028;-74
2021/11/04 10:58:34;;;;;;;0.20;0.20;;;8.60;99.90;;;;;;5008269;28;20026;-74
2021/11/04 11:01:01;;;;;;;0.65;0.45;;;9.00;99.90;;;;;;5012630;28;20144;-75
2021/11/04 11:03:29;;;;;;;0.45;0.45;;;8.80;99.90;;;;;;5011738;28;20026;-74
2021/11/04 11:05:58;;;;;;;2.13;0.90;;;8.60;99.90;;;;;;5009796;28;20060;-75
2021/11/04 11:08:28;;;;;;;0.22;0.22;;;8.70;99.90;;;;;;5007025;28;20029;-75
2021/11/04 11:10:54;;;;;;;0.20;0.20;;;8.70;99.90;;;;;;5009970;28;20018;-74
2021/11/04 11:13:20;;;;;;;0.30;0.30;;;8.80;99.90;;;;;;5010514;28;20072;-74
2021/11/04 11:15:55;;;;;;;0.30;0.30;;;8.50;99.90;;;;;;5010288;28;20511;-74
2021/11/04 11:18:23;;;;;;;0.28;0.28;;;8.40;99.90;;;;;;5011213;28;20116;-76
2021/11/04 11:20:49;;;;;;;0.10;0.10;;;8.20;99.90;;;;;;5011583;28;20032;-74
2021/11/04 11:23:17;;;;;;;0.40;0.40;;;8.00;99.90;;;;;;4994093;28;20386;-75
2021/11/04 11:25:49;;;;;;;0.40;0.40;;;7.80;99.90;;;;;;5010857;28;20018;-75
2021/11/04 11:28:16;;;;;;;;;;;7.90;99.90;;;;;;5011922;28;20050;-74
2021/11/04 11:31:08;;;;;;;0.20;0.20;;;8.10;99.90;;;;;;5010781;28;20335;-74
2021/11/04 11:33:33;;;;;;;0.30;0.30;;;8.60;99.90;;;;;;5004903;28;20500;-74
2021/11/04 11:36:17;;;;;;;0.20;0.20;;;8.40;99.90;;;;;;5007445;28;20030;-75
2021/11/04 11:38:56;;;;;;;0.10;0.10;;;8.40;99.90;;;;;;5008217;28;20026;-75
2021/11/04 11:41:25;;;;;;;0.20;0.20;;;7.90;99.90;;;;;;5008257;28;20041;-75
2021/11/04 11:43:56;;;;;;;0.30;0.30;;;7.70;99.90;;;;;;5010099;28;20067;-75
2021/11/04 11:46:22;;;;;;;0.20;0.20;;;7.60;99.90;;;;;;5009356;28;20072;-76
2021/11/04 11:49:11;;;;;;;0.25;0.25;;;7.60;99.90;;;;;;5010773;28;20077;-74
2021/11/04 11:51:57;;;;;;;0.28;0.28;;;7.60;99.90;;;;;;5008005;28;20030;-74
2021/11/04 11:54:41;;;;;;;0.30;0.30;;;7.50;99.90;;;;;;5011110;28;20026;-75
2021/11/04 11:57:09;;;;;;;0.20;0.20;;;7.50;99.90;;;;;;5008078;28;20410;-74
2021/11/04 11:59:53;;;;;;;0.20;0.20;;;7.20;99.90;;;;;;5009376;28;20029;-74
2021/11/04 12:02:34;;;;;;;10.70;0.50;;;7.20;99.90;;;;;;5008129;28;20026;-75
2021/11/04 12:05:21;;;;;;;0.55;0.55;;;7.20;99.90;;;;;;5009993;28;20031;-74
2021/11/04 12:08:12;;;;;;;0.20;0.20;;;7.10;99.90;;;;;;5010975;28;20044;-74
2021/11/04 12:10:43;;;;;;;0.43;0.43;;;7.10;99.90;;;;;;4991633;28;20088;-74
2021/11/04 12:13:40;;;;;;;0.20;0.20;;;7.10;99.90;;;;;;5009615;28;20034;-74
2021/11/04 12:16:06;;;;;;;0.20;0.20;;;7.20;99.90;;;;;;5010275;28;20046;-74
2021/11/04 12:18:32;;;;;;;0.13;0.13;;;7.40;99.90;;;;;;5009665;28;20110;-74
2021/11/04 12:20:58;;;;;;;0.32;0.32;;;7.40;99.90;;;;;;5009260;28;20508;-75
2021/11/04 12:23:39;;;;;;;0.20;0.20;;;7.40;99.90;;;;;;5010846;28;20122;-75
2021/11/04 12:26:05;;;;;;;0.20;0.20;;;7.20;99.90;;;;;;5005715;28;20454;-74
2021/11/04 12:29:02;;;;;;;0.20;0.20;;;7.00;99.90;;;;;;5009644;28;20026;-74
2021/11/04 12:31:29;;;;;;;0.30;0.30;;;7.10;99.90;;;;;;4984589;28;20048;-75
2021/11/04 12:33:56;;;;;;;0.20;0.20;;;7.10;99.90;;;;;;5009813;28;20053;-75
2021/11/04 12:36:37;;;;;;;0.20;0.20;;;7.20;99.90;;;;;;5009872;28;20497;-75
2021/11/04 12:39:08;;;;;;;0.30;0.30;;;7.40;99.90;;;;;;5007295;28;20470;-75
2021/11/04 12:41:34;;;;;;;0.30;0.30;;;7.60;99.90;;;;;;5009545;28;20272;-75
2021/11/04 12:44:02;;;;;;;0.20;0.20;;;7.90;99.90;;;;;;5009153;28;20421;-75
2021/11/04 12:46:30;;;;;;;0.20;0.20;;;8.20;99.90;;;;;;5010228;28;20029;-74
2021/11/04 12:49:01;;;;;;;0.20;0.20;;;8.60;99.90;;;;;;5011000;28;20026;-75
2021/11/04 12:51:48;;;;;;;0.20;0.20;;;8.60;99.90;;;;;;5009159;28;20038;-74
2021/11/04 12:54:19;;;;;;;0.20;0.20;;;8.90;99.90;;;;;;5007048;28;20045;-74
2021/11/04 12:57:06;;;;;;;0.20;0.20;;;9.40;99.90;;;;;;5010358;28;20033;-76
2021/11/04 12:59:56;;;;;;;0.20;0.20;;;9.20;99.90;;;;;;5009542;28;20040;-74
2021/11/04 13:02:28;;;;;;;0.20;0.20;;;9.20;99.90;;;;;;5007619;28;20397;-75
2021/11/04 13:04:58;;;;;;;0.38;0.38;;;9.00;99.90;;;;;;5013084;28;20056;-75